sensor_id;sensor_type;location;lat;lon;timestamp;temperature;humidity
16417;DHT22;8317;52.186;5.688;2023-06-26T00:00:11;23.30;99.90
16417;DHT22;8317;52.186;5.688;2023-06-26T00:02:38;23.30;99.90
16417;DHT22;8317;52.186;5.688;2023-06-26T00:05:06;23.20;99.90
16417;DHT22;8317;52.186;5.688;2023-06-26T00:07:33;23.20;99.90
16417;DHT22;8317;52.186;5.688;2023-06-26T00:10:00;23.10;99.90
16417;DHT22;8317;52.186;5.688;2023-06-26T00:12:28;23.00;99.90
16417;DHT22;8317;52.186;5.688;2023-06-26T00:14:55;23.00;99.90
16417;DHT22;8317;52.186;5.688;2023-06-26T00:17:23;23.00;99.90
16417;DHT22;8317;52.186;5.688;2023-06-26T00:19:50;23.00;99.90
16417;DHT22;8317;52.186;5.688;2023-06-26T00:22:17;22.90;99.90
16417;DHT22;8317;52.186;5.688;2023-06-26T00:24:44;22.90;99.90
16417;DHT22;8317;52.186;5.688;2023-06-26T00:27:11;22.80;99.90
16417;DHT22;8317;52.186;5.688;2023-06-26T00:29:38;22.70;99.90
16417;DHT22;8317;52.186;5.688;2023-06-26T00:32:06;22.60;99.90
16417;DHT22;8317;52.186;5.688;2023-06-26T00:34:34;22.60;99.90
16417;DHT22;8317;52.186;5.688;2023-06-26T00:37:01;22.60;99.90
16417;DHT22;8317;52.186;5.688;2023-06-26T00:39:29;22.50;99.90
16417;DHT22;8317;52.186;5.688;2023-06-26T00:41:56;22.50;99.90
16417;DHT22;8317;52.186;5.688;2023-06-26T00:44:23;22.40;99.90
16417;DHT22;8317;52.186;5.688;2023-06-26T00:46:50;22.40;99.90
16417;DHT22;8317;52.186;5.688;2023-06-26T00:49:17;22.40;99.90
16417;DHT22;8317;52.186;5.688;2023-06-26T00:51:46;22.40;99.90
16417;DHT22;8317;52.186;5.688;2023-06-26T00:54:13;22.40;99.90
16417;DHT22;8317;52.186;5.688;2023-06-26T00:56:45;22.40;99.90
16417;DHT22;8317;52.186;5.688;2023-06-26T00:59:13;22.40;99.90
16417;DHT22;8317;52.186;5.688;2023-06-26T01:01:40;22.40;99.90
16417;DHT22;8317;52.186;5.688;2023-06-26T01:04:07;22.40;99.90
16417;DHT22;8317;52.186;5.688;2023-06-26T01:06:34;22.40;99.90
16417;DHT22;8317;52.186;5.688;2023-06-26T01:09:03;22.40;99.90
16417;DHT22;8317;52.186;5.688;2023-06-26T01:11:30;22.30;99.90
16417;DHT22;8317;52.186;5.688;2023-06-26T01:13:59;22.30;99.90
16417;DHT22;8317;52.186;5.688;2023-06-26T01:16:29;22.20;99.90
16417;DHT22;8317;52.186;5.688;2023-06-26T01:18:57;22.20;99.90
16417;DHT22;8317;52.186;5.688;2023-06-26T01:21:24;22.20;99.90
16417;DHT22;8317;52.186;5.688;2023-06-26T01:24:07;22.20;99.90
16417;DHT22;8317;52.186;5.688;2023-06-26T01:26:38;22.10;99.90
16417;DHT22;8317;52.186;5.688;2023-06-26T01:29:07;22.10;99.90
16417;DHT22;8317;52.186;5.688;2023-06-26T01:31:36;22.10;99.90
16417;DHT22;8317;52.186;5.688;2023-06-26T01:34:04;22.00;99.90
16417;DHT22;8317;52.186;5.688;2023-06-26T01:36:31;22.10;99.90
16417;DHT22;8317;52.186;5.688;2023-06-26T01:38:57;22.10;99.90
16417;DHT22;8317;52.186;5.688;2023-06-26T01:41:25;22.10;99.90
16417;DHT22;8317;52.186;5.688;2023-06-26T01:44:10;22.10;99.90
16417;DHT22;8317;52.186;5.688;2023-06-26T01:46:42;22.10;99.90
16417;DHT22;8317;52.186;5.688;2023-06-26T01:49:15;22.10;99.90
16417;DHT22;8317;52.186;5.688;2023-06-26T01:51:49;22.10;99.90
16417;DHT22;8317;52.186;5.688;2023-06-26T01:54:20;22.20;99.90
16417;DHT22;8317;52.186;5.688;2023-06-26T01:56:49;22.30;99.90
16417;DHT22;8317;52.186;5.688;2023-06-26T01:59:21;22.20;99.90
16417;DHT22;8317;52.186;5.688;2023-06-26T02:01:48;22.30;99.90
16417;DHT22;8317;52.186;5.688;2023-06-26T02:04:15;22.30;99.90
16417;DHT22;8317;52.186;5.688;2023-06-26T02:06:42;22.30;99.90
16417;DHT22;8317;52.186;5.688;2023-06-26T02:09:09;22.30;99.90
16417;DHT22;8317;52.186;5.688;2023-06-26T02:11:36;22.20;99.90
16417;DHT22;8317;52.186;5.688;2023-06-26T02:14:03;22.30;99.90
16417;DHT22;8317;52.186;5.688;2023-06-26T02:16:31;22.30;99.90
16417;DHT22;8317;52.186;5.688;2023-06-26T02:18:58;22.20;99.90
16417;DHT22;8317;52.186;5.688;2023-06-26T02:21:25;22.20;99.90
16417;DHT22;8317;52.186;5.688;2023-06-26T02:23:52;22.20;99.90
16417;DHT22;8317;52.186;5.688;2023-06-26T02:26:19;22.20;99.90
16417;DHT22;8317;52.186;5.688;2023-06-26T02:28:46;22.10;99.90
16417;DHT22;8317;52.186;5.688;2023-06-26T02:31:13;22.20;99.90
16417;DHT22;8317;52.186;5.688;2023-06-26T02:33:41;22.30;99.90
16417;DHT22;8317;52.186;5.688;2023-06-26T02:36:10;22.20;99.90
16417;DHT22;8317;52.186;5.688;2023-06-26T02:38:37;22.10;99.90
16417;DHT22;8317;52.186;5.688;2023-06-26T02:41:04;22.10;99.90
16417;DHT22;8317;52.186;5.688;2023-06-26T02:43:31;22.10;99.90
16417;DHT22;8317;52.186;5.688;2023-06-26T02:45:58;21.90;99.90
16417;DHT22;8317;52.186;5.688;2023-06-26T02:48:25;21.90;99.90
16417;DHT22;8317;52.186;5.688;2023-06-26T02:50:53;21.90;99.90
16417;DHT22;8317;52.186;5.688;2023-06-26T02:53:20;21.90;99.90
16417;DHT22;8317;52.186;5.688;2023-06-26T02:55:47;21.80;99.90
16417;DHT22;8317;52.186;5.688;2023-06-26T02:58:13;21.80;99.90
16417;DHT22;8317;52.186;5.688;2023-06-26T03:00:40;21.80;99.90
16417;DHT22;8317;52.186;5.688;2023-06-26T03:03:08;21.70;99.90
16417;DHT22;8317;52.186;5.688;2023-06-26T03:05:35;21.60;99.90
16417;DHT22;8317;52.186;5.688;2023-06-26T03:08:04;21.70;99.90
16417;DHT22;8317;52.186;5.688;2023-06-26T03:10:31;21.70;99.90
16417;DHT22;8317;52.186;5.688;2023-06-26T03:12:58;21.70;99.90
16417;DHT22;8317;52.186;5.688;2023-06-26T03:15:25;21.70;99.90
16417;DHT22;8317;52.186;5.688;2023-06-26T03:17:52;21.50;99.90
16417;DHT22;8317;52.186;5.688;2023-06-26T03:20:19;21.50;99.90
16417;DHT22;8317;52.186;5.688;2023-06-26T03:22:45;21.50;99.90
16417;DHT22;8317;52.186;5.688;2023-06-26T03:25:14;21.50;99.90
16417;DHT22;8317;52.186;5.688;2023-06-26T03:27:40;21.40;99.90
16417;DHT22;8317;52.186;5.688;2023-06-26T03:30:08;21.30;99.90
16417;DHT22;8317;52.186;5.688;2023-06-26T03:32:35;21.30;99.90
16417;DHT22;8317;52.186;5.688;2023-06-26T03:35:02;21.40;99.90
16417;DHT22;8317;52.186;5.688;2023-06-26T03:37:29;21.30;99.90
16417;DHT22;8317;52.186;5.688;2023-06-26T03:39:56;21.30;99.90
16417;DHT22;8317;52.186;5.688;2023-06-26T03:42:24;21.30;99.90
16417;DHT22;8317;52.186;5.688;2023-06-26T03:44:51;21.20;99.90
16417;DHT22;8317;52.186;5.688;2023-06-26T03:47:18;21.20;99.90
16417;DHT22;8317;52.186;5.688;2023-06-26T03:49:45;21.20;99.90
16417;DHT22;8317;52.186;5.688;2023-06-26T03:52:11;21.20;99.90
16417;DHT22;8317;52.186;5.688;2023-06-26T03:54:38;21.20;99.90
16417;DHT22;8317;52.186;5.688;2023-06-26T03:57:05;21.20;99.90
16417;DHT22;8317;52.186;5.688;2023-06-26T03:59:33;21.20;99.90
16417;DHT22;8317;52.186;5.688;2023-06-26T04:02:00;21.20;99.90
16417;DHT22;8317;52.186;5.688;2023-06-26T04:04:27;21.20;99.90
16417;DHT22;8317;52.186;5.688;2023-06-26T04:06:54;21.20;99.90
16417;DHT22;8317;52.186;5.688;2023-06-26T04:09:21;21.30;99.90
16417;DHT22;8317;52.186;5.688;2023-06-26T04:11:48;21.30;99.90
16417;DHT22;8317;52.186;5.688;2023-06-26T04:14:15;21.40;99.90
16417;DHT22;8317;52.186;5.688;2023-06-26T04:16:43;21.40;99.90
16417;DHT22;8317;52.186;5.688;2023-06-26T04:19:11;21.30;99.90
16417;DHT22;8317;52.186;5.688;2023-06-26T04:21:38;21.20;99.90
16417;DHT22;8317;52.186;5.688;2023-06-26T04:24:05;21.10;99.90
16417;DHT22;8317;52.186;5.688;2023-06-26T04:26:32;21.20;99.90
16417;DHT22;8317;52.186;5.688;2023-06-26T04:28:59;21.10;99.90
16417;DHT22;8317;52.186;5.688;2023-06-26T04:31:26;21.10;99.90
16417;DHT22;8317;52.186;5.688;2023-06-26T04:33:54;21.00;99.90
16417;DHT22;8317;52.186;5.688;2023-06-26T04:36:21;21.10;99.90
16417;DHT22;8317;52.186;5.688;2023-06-26T04:38:48;21.00;99.90
16417;DHT22;8317;52.186;5.688;2023-06-26T04:41:15;20.90;99.90
16417;DHT22;8317;52.186;5.688;2023-06-26T04:43:42;20.90;99.90
16417;DHT22;8317;52.186;5.688;2023-06-26T04:46:09;20.90;99.90
16417;DHT22;8317;52.186;5.688;2023-06-26T04:48:36;20.80;99.90
16417;DHT22;8317;52.186;5.688;2023-06-26T04:51:04;20.90;99.90
16417;DHT22;8317;52.186;5.688;2023-06-26T04:53:31;20.80;99.90
16417;DHT22;8317;52.186;5.688;2023-06-26T04:55:57;20.80;99.90
16417;DHT22;8317;52.186;5.688;2023-06-26T04:58:24;20.70;99.90
16417;DHT22;8317;52.186;5.688;2023-06-26T05:00:51;20.70;99.90
16417;DHT22;8317;52.186;5.688;2023-06-26T05:03:18;20.70;99.90
16417;DHT22;8317;52.186;5.688;2023-06-26T05:05:46;20.70;99.90
16417;DHT22;8317;52.186;5.688;2023-06-26T05:08:20;20.80;99.90
16417;DHT22;8317;52.186;5.688;2023-06-26T05:10:47;20.90;99.90
16417;DHT22;8317;52.186;5.688;2023-06-26T05:13:14;21.00;99.90
16417;DHT22;8317;52.186;5.688;2023-06-26T05:15:43;20.90;99.90
16417;DHT22;8317;52.186;5.688;2023-06-26T05:18:10;21.00;99.90
16417;DHT22;8317;52.186;5.688;2023-06-26T05:20:37;20.90;99.90
16417;DHT22;8317;52.186;5.688;2023-06-26T05:23:05;20.90;99.90
16417;DHT22;8317;52.186;5.688;2023-06-26T05:25:34;20.80;99.90
16417;DHT22;8317;52.186;5.688;2023-06-26T05:28:02;20.90;99.90
16417;DHT22;8317;52.186;5.688;2023-06-26T05:30:31;20.80;99.90
16417;DHT22;8317;52.186;5.688;2023-06-26T05:33:00;20.90;99.90
16417;DHT22;8317;52.186;5.688;2023-06-26T05:35:29;20.90;99.90
16417;DHT22;8317;52.186;5.688;2023-06-26T05:37:57;20.90;99.90
16417;DHT22;8317;52.186;5.688;2023-06-26T05:40:25;21.00;99.90
16417;DHT22;8317;52.186;5.688;2023-06-26T05:42:54;21.10;99.90
16417;DHT22;8317;52.186;5.688;2023-06-26T05:45:21;21.10;99.90
16417;DHT22;8317;52.186;5.688;2023-06-26T05:47:48;21.20;99.90
16417;DHT22;8317;52.186;5.688;2023-06-26T05:50:18;21.20;99.90
16417;DHT22;8317;52.186;5.688;2023-06-26T05:52:46;21.30;99.90
16417;DHT22;8317;52.186;5.688;2023-06-26T05:55:13;21.30;99.90
16417;DHT22;8317;52.186;5.688;2023-06-26T05:57:41;21.40;99.90
16417;DHT22;8317;52.186;5.688;2023-06-26T06:00:11;21.50;99.90
16417;DHT22;8317;52.186;5.688;2023-06-26T06:02:38;21.50;99.90
16417;DHT22;8317;52.186;5.688;2023-06-26T06:05:06;21.70;99.90
16417;DHT22;8317;52.186;5.688;2023-06-26T06:07:33;21.90;99.90
16417;DHT22;8317;52.186;5.688;2023-06-26T06:10:01;21.90;99.90
16417;DHT22;8317;52.186;5.688;2023-06-26T06:12:28;21.80;99.90
16417;DHT22;8317;52.186;5.688;2023-06-26T06:14:55;22.00;99.90
16417;DHT22;8317;52.186;5.688;2023-06-26T06:17:24;21.90;99.90
16417;DHT22;8317;52.186;5.688;2023-06-26T06:19:51;22.00;99.90
16417;DHT22;8317;52.186;5.688;2023-06-26T06:22:18;22.30;99.90
16417;DHT22;8317;52.186;5.688;2023-06-26T06:24:45;22.40;99.90
16417;DHT22;8317;52.186;5.688;2023-06-26T06:27:11;22.40;99.90
16417;DHT22;8317;52.186;5.688;2023-06-26T06:29:39;22.70;99.90
16417;DHT22;8317;52.186;5.688;2023-06-26T06:32:06;22.60;99.90
16417;DHT22;8317;52.186;5.688;2023-06-26T06:34:35;22.70;99.90
16417;DHT22;8317;52.186;5.688;2023-06-26T06:37:02;22.50;99.90
16417;DHT22;8317;52.186;5.688;2023-06-26T06:39:29;22.40;99.90
16417;DHT22;8317;52.186;5.688;2023-06-26T06:41:56;22.70;99.90
16417;DHT22;8317;52.186;5.688;2023-06-26T06:44:23;22.40;99.90
16417;DHT22;8317;52.186;5.688;2023-06-26T06:46:50;22.60;99.90
16417;DHT22;8317;52.186;5.688;2023-06-26T06:49:17;22.80;99.90
16417;DHT22;8317;52.186;5.688;2023-06-26T06:51:45;22.70;99.90
16417;DHT22;8317;52.186;5.688;2023-06-26T06:54:12;23.00;99.90
16417;DHT22;8317;52.186;5.688;2023-06-26T06:56:39;23.20;99.90
16417;DHT22;8317;52.186;5.688;2023-06-26T06:59:06;23.40;99.90
16417;DHT22;8317;52.186;5.688;2023-06-26T07:01:32;23.30;99.90
16417;DHT22;8317;52.186;5.688;2023-06-26T07:03:59;23.00;99.90
16417;DHT22;8317;52.186;5.688;2023-06-26T07:06:26;22.60;99.90
16417;DHT22;8317;52.186;5.688;2023-06-26T07:08:54;22.40;99.90
16417;DHT22;8317;52.186;5.688;2023-06-26T07:11:21;22.70;99.90
16417;DHT22;8317;52.186;5.688;2023-06-26T07:13:48;22.90;99.90
16417;DHT22;8317;52.186;5.688;2023-06-26T07:16:15;23.10;99.90
16417;DHT22;8317;52.186;5.688;2023-06-26T07:18:42;22.90;99.90
16417;DHT22;8317;52.186;5.688;2023-06-26T07:21:09;22.60;99.90
16417;DHT22;8317;52.186;5.688;2023-06-26T07:23:36;22.40;99.90
16417;DHT22;8317;52.186;5.688;2023-06-26T07:26:05;22.40;99.90
16417;DHT22;8317;52.186;5.688;2023-06-26T07:28:32;22.10;99.90
16417;DHT22;8317;52.186;5.688;2023-06-26T07:30:58;22.30;99.90
16417;DHT22;8317;52.186;5.688;2023-06-26T07:33:25;22.20;99.90
16417;DHT22;8317;52.186;5.688;2023-06-26T07:35:52;22.30;99.90
16417;DHT22;8317;52.186;5.688;2023-06-26T07:38:19;22.50;99.90
16417;DHT22;8317;52.186;5.688;2023-06-26T07:40:46;22.80;99.90
16417;DHT22;8317;52.186;5.688;2023-06-26T07:43:14;23.20;99.90
16417;DHT22;8317;52.186;5.688;2023-06-26T07:45:41;23.20;99.90
16417;DHT22;8317;52.186;5.688;2023-06-26T07:48:08;22.90;99.90
16417;DHT22;8317;52.186;5.688;2023-06-26T07:50:35;22.60;99.90
16417;DHT22;8317;52.186;5.688;2023-06-26T07:53:02;22.20;99.90
16417;DHT22;8317;52.186;5.688;2023-06-26T07:55:31;22.40;99.90
16417;DHT22;8317;52.186;5.688;2023-06-26T07:57:57;22.60;99.90
16417;DHT22;8317;52.186;5.688;2023-06-26T08:00:26;22.70;99.90
16417;DHT22;8317;52.186;5.688;2023-06-26T08:02:53;22.60;99.90
16417;DHT22;8317;52.186;5.688;2023-06-26T08:05:20;22.50;99.90
16417;DHT22;8317;52.186;5.688;2023-06-26T08:07:47;22.50;99.90
16417;DHT22;8317;52.186;5.688;2023-06-26T08:10:14;23.00;99.90
16417;DHT22;8317;52.186;5.688;2023-06-26T08:12:41;23.00;99.90
16417;DHT22;8317;52.186;5.688;2023-06-26T08:15:10;22.60;99.90
16417;DHT22;8317;52.186;5.688;2023-06-26T08:17:38;22.30;99.90
16417;DHT22;8317;52.186;5.688;2023-06-26T08:20:06;22.40;99.90
16417;DHT22;8317;52.186;5.688;2023-06-26T08:22:34;22.90;99.90
16417;DHT22;8317;52.186;5.688;2023-06-26T08:25:02;23.60;99.90
16417;DHT22;8317;52.186;5.688;2023-06-26T08:27:29;23.80;99.90
16417;DHT22;8317;52.186;5.688;2023-06-26T08:29:56;23.60;99.90
16417;DHT22;8317;52.186;5.688;2023-06-26T08:32:24;23.60;99.90
16417;DHT22;8317;52.186;5.688;2023-06-26T08:34:53;23.70;99.90
16417;DHT22;8317;52.186;5.688;2023-06-26T08:37:19;24.20;99.90
16417;DHT22;8317;52.186;5.688;2023-06-26T08:39:47;23.60;99.90
16417;DHT22;8317;52.186;5.688;2023-06-26T08:42:14;24.10;99.90
16417;DHT22;8317;52.186;5.688;2023-06-26T08:44:41;24.60;99.90
16417;DHT22;8317;52.186;5.688;2023-06-26T08:47:08;24.80;99.90
16417;DHT22;8317;52.186;5.688;2023-06-26T08:49:46;24.40;99.90
16417;DHT22;8317;52.186;5.688;2023-06-26T08:52:19;24.30;99.90
16417;DHT22;8317;52.186;5.688;2023-06-26T08:54:52;24.20;99.90
16417;DHT22;8317;52.186;5.688;2023-06-26T08:57:22;24.20;99.90
16417;DHT22;8317;52.186;5.688;2023-06-26T08:59:49;24.70;99.90
16417;DHT22;8317;52.186;5.688;2023-06-26T09:02:17;25.00;99.90
16417;DHT22;8317;52.186;5.688;2023-06-26T09:04:44;25.00;99.90
16417;DHT22;8317;52.186;5.688;2023-06-26T09:07:10;25.40;99.90
16417;DHT22;8317;52.186;5.688;2023-06-26T09:09:39;25.30;99.90
16417;DHT22;8317;52.186;5.688;2023-06-26T09:12:06;25.20;99.90
16417;DHT22;8317;52.186;5.688;2023-06-26T09:14:35;25.30;99.90
16417;DHT22;8317;52.186;5.688;2023-06-26T09:17:03;25.60;99.90
16417;DHT22;8317;52.186;5.688;2023-06-26T09:19:30;25.40;99.90
16417;DHT22;8317;52.186;5.688;2023-06-26T09:21:57;25.20;99.90
16417;DHT22;8317;52.186;5.688;2023-06-26T09:24:25;25.40;99.90
16417;DHT22;8317;52.186;5.688;2023-06-26T09:26:53;25.00;99.90
16417;DHT22;8317;52.186;5.688;2023-06-26T09:29:21;24.40;99.90
16417;DHT22;8317;52.186;5.688;2023-06-26T09:31:48;24.50;99.90
16417;DHT22;8317;52.186;5.688;2023-06-26T09:34:15;25.00;99.90
16417;DHT22;8317;52.186;5.688;2023-06-26T09:36:41;25.10;99.90
16417;DHT22;8317;52.186;5.688;2023-06-26T09:39:12;24.70;99.90
16417;DHT22;8317;52.186;5.688;2023-06-26T09:41:41;24.60;99.90
16417;DHT22;8317;52.186;5.688;2023-06-26T09:44:11;24.60;99.90
16417;DHT22;8317;52.186;5.688;2023-06-26T09:46:38;25.00;99.90
16417;DHT22;8317;52.186;5.688;2023-06-26T09:49:07;25.20;99.90
16417;DHT22;8317;52.186;5.688;2023-06-26T09:51:36;25.40;99.90
16417;DHT22;8317;52.186;5.688;2023-06-26T09:54:04;25.70;99.90
16417;DHT22;8317;52.186;5.688;2023-06-26T09:56:32;25.40;99.90
16417;DHT22;8317;52.186;5.688;2023-06-26T09:59:00;25.30;99.90
16417;DHT22;8317;52.186;5.688;2023-06-26T10:01:30;25.80;99.90
16417;DHT22;8317;52.186;5.688;2023-06-26T10:03:57;26.00;99.90
16417;DHT22;8317;52.186;5.688;2023-06-26T10:06:28;26.30;99.90
16417;DHT22;8317;52.186;5.688;2023-06-26T10:09:00;26.50;99.90
16417;DHT22;8317;52.186;5.688;2023-06-26T10:11:33;26.00;99.90
16417;DHT22;8317;52.186;5.688;2023-06-26T10:14:03;24.90;99.90
16417;DHT22;8317;52.186;5.688;2023-06-26T10:16:33;25.20;99.90
16417;DHT22;8317;52.186;5.688;2023-06-26T10:19:04;25.30;99.90
16417;DHT22;8317;52.186;5.688;2023-06-26T10:21:34;24.50;99.90
16417;DHT22;8317;52.186;5.688;2023-06-26T10:24:03;23.60;99.90
16417;DHT22;8317;52.186;5.688;2023-06-26T10:26:33;23.50;99.90
16417;DHT22;8317;52.186;5.688;2023-06-26T10:29:02;23.80;99.90
16417;DHT22;8317;52.186;5.688;2023-06-26T10:31:32;24.40;99.90
16417;DHT22;8317;52.186;5.688;2023-06-26T10:34:00;24.80;99.90
16417;DHT22;8317;52.186;5.688;2023-06-26T10:36:29;24.60;99.90
16417;DHT22;8317;52.186;5.688;2023-06-26T10:38:58;24.40;99.90
16417;DHT22;8317;52.186;5.688;2023-06-26T10:41:36;24.20;99.90
16417;DHT22;8317;52.186;5.688;2023-06-26T10:44:08;24.20;99.90
16417;DHT22;8317;52.186;5.688;2023-06-26T10:46:50;24.60;99.90
16417;DHT22;8317;52.186;5.688;2023-06-26T10:49:18;25.10;99.90
16417;DHT22;8317;52.186;5.688;2023-06-26T10:51:49;25.10;99.90
16417;DHT22;8317;52.186;5.688;2023-06-26T10:54:17;24.40;99.90
16417;DHT22;8317;52.186;5.688;2023-06-26T10:56:45;23.90;99.90
16417;DHT22;8317;52.186;5.688;2023-06-26T10:59:16;23.90;99.90
16417;DHT22;8317;52.186;5.688;2023-06-26T11:01:44;24.10;99.90
16417;DHT22;8317;52.186;5.688;2023-06-26T11:04:13;24.10;99.90
16417;DHT22;8317;52.186;5.688;2023-06-26T11:06:44;23.70;99.90
16417;DHT22;8317;52.186;5.688;2023-06-26T11:09:15;23.50;99.90
16417;DHT22;8317;52.186;5.688;2023-06-26T11:12:00;23.70;99.90
16417;DHT22;8317;52.186;5.688;2023-06-26T11:14:33;24.00;99.90
16417;DHT22;8317;52.186;5.688;2023-06-26T11:17:05;24.10;99.90
16417;DHT22;8317;52.186;5.688;2023-06-26T11:19:33;24.50;99.90
16417;DHT22;8317;52.186;5.688;2023-06-26T11:22:04;24.90;99.90
16417;DHT22;8317;52.186;5.688;2023-06-26T11:24:31;25.00;99.90
16417;DHT22;8317;52.186;5.688;2023-06-26T11:27:03;24.90;99.90
16417;DHT22;8317;52.186;5.688;2023-06-26T11:29:32;24.70;99.90
16417;DHT22;8317;52.186;5.688;2023-06-26T11:32:00;24.60;99.90
16417;DHT22;8317;52.186;5.688;2023-06-26T11:34:30;24.70;99.90
16417;DHT22;8317;52.186;5.688;2023-06-26T11:36:58;24.80;99.90
16417;DHT22;8317;52.186;5.688;2023-06-26T11:39:27;24.50;99.90
16417;DHT22;8317;52.186;5.688;2023-06-26T11:41:54;24.40;99.90
16417;DHT22;8317;52.186;5.688;2023-06-26T11:44:21;24.40;99.90
16417;DHT22;8317;52.186;5.688;2023-06-26T11:46:51;24.60;99.90
16417;DHT22;8317;52.186;5.688;2023-06-26T11:49:21;24.30;99.90
16417;DHT22;8317;52.186;5.688;2023-06-26T11:51:49;24.20;99.90
16417;DHT22;8317;52.186;5.688;2023-06-26T11:54:23;24.60;99.90
16417;DHT22;8317;52.186;5.688;2023-06-26T11:56:58;24.70;99.90
16417;DHT22;8317;52.186;5.688;2023-06-26T11:59:34;24.80;99.90
16417;DHT22;8317;52.186;5.688;2023-06-26T12:02:05;24.90;99.90
16417;DHT22;8317;52.186;5.688;2023-06-26T12:04:32;24.70;99.90
16417;DHT22;8317;52.186;5.688;2023-06-26T12:07:01;24.30;99.90
16417;DHT22;8317;52.186;5.688;2023-06-26T12:09:31;24.40;99.90
16417;DHT22;8317;52.186;5.688;2023-06-26T12:11:59;24.60;99.90
16417;DHT22;8317;52.186;5.688;2023-06-26T12:14:27;24.70;99.90
16417;DHT22;8317;52.186;5.688;2023-06-26T12:16:55;24.80;99.90
16417;DHT22;8317;52.186;5.688;2023-06-26T12:19:25;24.60;99.90
16417;DHT22;8317;52.186;5.688;2023-06-26T12:21:52;24.90;99.90
16417;DHT22;8317;52.186;5.688;2023-06-26T12:24:24;25.30;99.90
16417;DHT22;8317;52.186;5.688;2023-06-26T12:26:54;25.60;99.90
16417;DHT22;8317;52.186;5.688;2023-06-26T12:29:29;25.60;99.90
16417;DHT22;8317;52.186;5.688;2023-06-26T12:31:56;25.70;99.90
16417;DHT22;8317;52.186;5.688;2023-06-26T12:34:27;25.50;99.90
16417;DHT22;8317;52.186;5.688;2023-06-26T12:37:00;25.60;99.90
16417;DHT22;8317;52.186;5.688;2023-06-26T12:39:27;25.30;99.90
16417;DHT22;8317;52.186;5.688;2023-06-26T12:41:57;25.20;99.90
16417;DHT22;8317;52.186;5.688;2023-06-26T12:44:27;25.30;99.90
16417;DHT22;8317;52.186;5.688;2023-06-26T12:46:56;25.20;99.90
16417;DHT22;8317;52.186;5.688;2023-06-26T12:49:30;25.00;99.90
16417;DHT22;8317;52.186;5.688;2023-06-26T12:51:59;24.80;99.90
16417;DHT22;8317;52.186;5.688;2023-06-26T12:54:26;24.90;99.90
16417;DHT22;8317;52.186;5.688;2023-06-26T12:56:53;24.90;99.90
16417;DHT22;8317;52.186;5.688;2023-06-26T12:59:22;25.10;99.90
16417;DHT22;8317;52.186;5.688;2023-06-26T13:01:49;25.40;99.90
16417;DHT22;8317;52.186;5.688;2023-06-26T13:04:16;25.60;99.90
16417;DHT22;8317;52.186;5.688;2023-06-26T13:06:43;25.00;99.90
16417;DHT22;8317;52.186;5.688;2023-06-26T13:09:10;25.20;99.90
16417;DHT22;8317;52.186;5.688;2023-06-26T13:11:37;25.30;99.90
16417;DHT22;8317;52.186;5.688;2023-06-26T13:14:04;25.40;99.90
16417;DHT22;8317;52.186;5.688;2023-06-26T13:16:32;25.10;99.90
16417;DHT22;8317;52.186;5.688;2023-06-26T13:18:59;25.10;99.90
16417;DHT22;8317;52.186;5.688;2023-06-26T13:21:27;25.00;99.90
16417;DHT22;8317;52.186;5.688;2023-06-26T13:23:54;25.10;99.90
16417;DHT22;8317;52.186;5.688;2023-06-26T13:26:21;25.20;99.90
16417;DHT22;8317;52.186;5.688;2023-06-26T13:28:48;24.80;99.90
16417;DHT22;8317;52.186;5.688;2023-06-26T13:31:15;24.50;99.90
16417;DHT22;8317;52.186;5.688;2023-06-26T13:33:44;24.30;99.90
16417;DHT22;8317;52.186;5.688;2023-06-26T13:36:11;24.40;99.90
16417;DHT22;8317;52.186;5.688;2023-06-26T13:38:39;24.60;99.90
16417;DHT22;8317;52.186;5.688;2023-06-26T13:41:06;24.50;99.90
16417;DHT22;8317;52.186;5.688;2023-06-26T13:43:32;24.60;99.90
16417;DHT22;8317;52.186;5.688;2023-06-26T13:46:00;24.90;99.90
16417;DHT22;8317;52.186;5.688;2023-06-26T13:48:28;24.80;99.90
16417;DHT22;8317;52.186;5.688;2023-06-26T13:50:59;24.40;99.90
16417;DHT22;8317;52.186;5.688;2023-06-26T13:53:26;24.60;99.90
16417;DHT22;8317;52.186;5.688;2023-06-26T13:55:53;24.50;99.90
16417;DHT22;8317;52.186;5.688;2023-06-26T13:58:20;24.40;99.90
16417;DHT22;8317;52.186;5.688;2023-06-26T14:00:48;24.40;99.90
16417;DHT22;8317;52.186;5.688;2023-06-26T14:03:15;24.20;99.90
16417;DHT22;8317;52.186;5.688;2023-06-26T14:05:43;24.20;99.90
16417;DHT22;8317;52.186;5.688;2023-06-26T14:08:11;24.20;99.90
16417;DHT22;8317;52.186;5.688;2023-06-26T14:10:38;24.40;99.90
16417;DHT22;8317;52.186;5.688;2023-06-26T14:13:06;24.40;99.90
16417;DHT22;8317;52.186;5.688;2023-06-26T14:15:34;24.30;99.90
16417;DHT22;8317;52.186;5.688;2023-06-26T14:18:02;24.40;99.90
16417;DHT22;8317;52.186;5.688;2023-06-26T14:20:29;24.40;99.90
16417;DHT22;8317;52.186;5.688;2023-06-26T14:22:58;23.80;99.90
16417;DHT22;8317;52.186;5.688;2023-06-26T14:25:27;23.40;99.90
16417;DHT22;8317;52.186;5.688;2023-06-26T14:27:55;23.30;99.90
16417;DHT22;8317;52.186;5.688;2023-06-26T14:30:22;23.30;99.90
16417;DHT22;8317;52.186;5.688;2023-06-26T14:32:49;23.60;99.90
16417;DHT22;8317;52.186;5.688;2023-06-26T14:35:16;23.80;99.90
16417;DHT22;8317;52.186;5.688;2023-06-26T14:37:43;23.40;99.90
16417;DHT22;8317;52.186;5.688;2023-06-26T14:40:11;23.60;99.90
16417;DHT22;8317;52.186;5.688;2023-06-26T14:42:40;23.50;99.90
16417;DHT22;8317;52.186;5.688;2023-06-26T14:45:09;23.30;99.90
16417;DHT22;8317;52.186;5.688;2023-06-26T14:47:36;23.00;99.90
16417;DHT22;8317;52.186;5.688;2023-06-26T14:50:04;23.10;99.90
16417;DHT22;8317;52.186;5.688;2023-06-26T14:52:31;23.20;99.90
16417;DHT22;8317;52.186;5.688;2023-06-26T14:54:58;23.30;99.90
16417;DHT22;8317;52.186;5.688;2023-06-26T14:57:25;23.50;99.90
16417;DHT22;8317;52.186;5.688;2023-06-26T14:59:53;23.80;99.90
16417;DHT22;8317;52.186;5.688;2023-06-26T15:02:20;24.20;99.90
16417;DHT22;8317;52.186;5.688;2023-06-26T15:04:47;24.20;99.90
16417;DHT22;8317;52.186;5.688;2023-06-26T15:07:13;24.40;99.90
16417;DHT22;8317;52.186;5.688;2023-06-26T15:09:40;24.30;99.90
16417;DHT22;8317;52.186;5.688;2023-06-26T15:12:07;23.80;99.90
16417;DHT22;8317;52.186;5.688;2023-06-26T15:14:34;23.70;99.90
16417;DHT22;8317;52.186;5.688;2023-06-26T15:17:03;23.40;99.90
16417;DHT22;8317;52.186;5.688;2023-06-26T15:19:30;23.20;99.90
16417;DHT22;8317;52.186;5.688;2023-06-26T15:21:57;23.20;99.90
16417;DHT22;8317;52.186;5.688;2023-06-26T15:24:24;23.00;99.90
16417;DHT22;8317;52.186;5.688;2023-06-26T15:26:51;22.60;99.90
16417;DHT22;8317;52.186;5.688;2023-06-26T15:29:17;22.40;99.90
16417;DHT22;8317;52.186;5.688;2023-06-26T15:31:44;22.30;99.90
16417;DHT22;8317;52.186;5.688;2023-06-26T15:34:13;22.20;99.90
16417;DHT22;8317;52.186;5.688;2023-06-26T15:36:39;22.30;99.90
16417;DHT22;8317;52.186;5.688;2023-06-26T15:39:06;22.40;99.90
16417;DHT22;8317;52.186;5.688;2023-06-26T15:41:33;22.20;99.90
16417;DHT22;8317;52.186;5.688;2023-06-26T15:44:02;22.20;99.90
16417;DHT22;8317;52.186;5.688;2023-06-26T15:46:29;22.40;99.90
16417;DHT22;8317;52.186;5.688;2023-06-26T15:48:56;22.60;99.90